createdAt,value
2018-12-15T00:02:26.554Z,93890.02
2018-12-15T00:04:53.916Z,93884.02
2018-12-15T00:07:21.287Z,93884.02
2018-12-15T00:09:48.658Z,93877.25
2018-12-15T00:12:16.071Z,93877.73
2018-12-15T00:14:43.647Z,93869.67
2018-12-15T00:17:12.069Z,93875.89
2018-12-15T00:19:42.700Z,93872.97
2018-12-15T00:22:10.083Z,93876.23
2018-12-15T00:24:39.388Z,93866.41
2018-12-15T00:27:10.521Z,93874.03
2018-12-15T00:29:37.875Z,93883.66
2018-12-15T00:32:05.270Z,93883.36
2018-12-15T00:34:32.627Z,93887.66
2018-12-15T00:37:16.022Z,93899.17
2018-12-15T00:39:43.373Z,93897.02
2018-12-15T00:42:10.836Z,93896.43
2018-12-15T00:44:38.208Z,93896.31
2018-12-15T00:47:13.676Z,93904.84
2018-12-15T00:49:38.792Z,93890.22
2018-12-15T00:52:09.418Z,93905.44
2018-12-15T00:54:36.802Z,93908.70
2018-12-15T00:57:12.573Z,93903.81
2018-12-15T00:59:43.110Z,93906.92
2018-12-15T01:02:10.497Z,93914.81
2018-12-15T01:04:37.967Z,93917.66
2018-12-15T01:07:05.318Z,93919.11
2018-12-15T01:09:32.715Z,93923.09
2018-12-15T01:12:00.080Z,93924.25
2018-12-15T01:14:30.723Z,93926.77
2018-12-15T01:17:20.526Z,93923.72
2018-12-15T01:19:46.103Z,93930.80
2018-12-15T01:22:13.563Z,93926.63
2018-12-15T01:24:40.959Z,93924.60
2018-12-15T01:27:08.314Z,93929.49
2018-12-15T01:29:35.682Z,93935.52
2018-12-15T01:32:03.069Z,93929.53
2018-12-15T01:34:30.500Z,93940.13
2018-12-15T01:36:57.839Z,93942.77
2018-12-15T01:39:28.190Z,93941.94
2018-12-15T01:41:55.593Z,93943.30
2018-12-15T01:44:26.624Z,93944.64
2018-12-15T01:46:54.042Z,93945.23
2018-12-15T01:49:24.887Z,93942.82
2018-12-15T01:51:52.272Z,93941.08
2018-12-15T01:54:22.960Z,93941.47
2018-12-15T01:56:50.295Z,93938.76
2018-12-15T01:59:17.666Z,93943.07
2018-12-15T02:01:45.060Z,93943.84
2018-12-15T02:04:18.241Z,93944.31
2018-12-15T02:06:45.764Z,93940.44
2018-12-15T02:09:13.148Z,93940.84
2018-12-15T02:11:43.623Z,93943.85
2018-12-15T02:14:10.999Z,93942.70
2018-12-15T02:16:41.622Z,93943.73
2018-12-15T02:19:09.034Z,93940.99
2018-12-15T02:21:36.483Z,93940.73
2018-12-15T02:24:07.649Z,93943.84
2018-12-15T02:26:36.081Z,93946.47
2018-12-15T02:29:11.221Z,93943.20
2018-12-15T02:31:38.585Z,93942.61
2018-12-15T02:34:12.264Z,93941.54
2018-12-15T02:36:41.830Z,93939.80
2018-12-15T02:39:09.178Z,93940.75
2018-12-15T02:41:36.600Z,93945.28
2018-12-15T02:44:03.974Z,93949.39
2018-12-15T02:46:35.072Z,93945.05
2018-12-15T02:49:06.095Z,93947.82
2018-12-15T02:51:33.469Z,93946.78
2018-12-15T02:54:04.164Z,93952.97
2018-12-15T02:56:33.123Z,93954.65
2018-12-15T02:59:00.494Z,93950.39
2018-12-15T03:01:29.648Z,93949.78
2018-12-15T03:03:57.149Z,93951.88
2018-12-15T03:06:29.628Z,93961.84
2018-12-15T03:09:00.419Z,93967.13
2018-12-15T03:11:27.769Z,93967.48
2018-12-15T03:13:59.060Z,93970.10
2018-12-15T03:16:40.697Z,93963.97
2018-12-15T03:19:14.102Z,93967.53
2018-12-15T03:21:42.739Z,93971.16
2018-12-15T03:24:13.653Z,93966.33
2018-12-15T03:29:38.555Z,93976.38
2018-12-15T03:32:05.885Z,93973.80
2018-12-15T03:34:37.253Z,93985.08
2018-12-15T03:37:08.425Z,93986.70
2018-12-15T03:39:35.786Z,93983.00
2018-12-15T03:42:03.119Z,93984.37
2018-12-15T03:45:55.011Z,93982.83
2018-12-15T03:48:22.379Z,93985.34
2018-12-15T03:50:55.173Z,93985.64
2018-12-15T03:53:26.431Z,93990.09
2018-12-15T03:55:53.831Z,93991.40
2018-12-15T04:00:49.778Z,93984.45
2018-12-15T04:03:17.146Z,93979.26
2018-12-15T04:05:44.511Z,93975.02
2018-12-15T04:08:17.437Z,93976.91
2018-12-15T04:10:48.413Z,93979.23
2018-12-15T04:13:15.749Z,93985.21
2018-12-15T04:15:43.298Z,93988.48
2018-12-15T04:18:14.680Z,93996.23
2018-12-15T04:20:42.015Z,93992.88
2018-12-15T04:23:09.364Z,94004.16
2018-12-15T04:25:36.724Z,94004.18
2018-12-15T04:28:07.492Z,94003.94
2018-12-15T04:30:35.127Z,94000.13
2018-12-15T04:33:02.480Z,93995.16
2018-12-15T04:35:29.881Z,94003.87
2018-12-15T04:37:59.148Z,93996.36
2018-12-15T04:40:26.727Z,94003.69
2018-12-15T04:42:57.244Z,94001.05
2018-12-15T04:45:24.586Z,93997.21
2018-12-15T04:47:52.942Z,93995.19
2018-12-15T04:50:20.321Z,93994.91
2018-12-15T04:52:51.561Z,93991.15
2018-12-15T04:55:18.881Z,93995.41
2018-12-15T04:57:47.285Z,93995.59
2018-12-15T05:00:14.670Z,93990.14
2018-12-15T05:02:43.995Z,93989.45
2018-12-15T05:05:11.414Z,93985.97
2018-12-15T05:07:38.786Z,93980.33
2018-12-15T05:10:06.282Z,93992.80
2018-12-15T05:12:37.654Z,93986.89
2018-12-15T05:15:05.182Z,93990.03
2018-12-15T05:17:32.526Z,93984.60
2018-12-15T05:19:59.889Z,93980.33
2018-12-15T05:22:27.271Z,93988.34
2018-12-15T05:24:54.834Z,93984.60
2018-12-15T05:27:26.410Z,93988.41
2018-12-15T05:29:53.789Z,93991.97
2018-12-15T05:32:21.121Z,93991.82
2018-12-15T05:34:54.409Z,93989.83
2018-12-15T05:37:22.866Z,93987.39
2018-12-15T05:39:50.220Z,93990.36
2018-12-15T05:42:19.010Z,93991.64
2018-12-15T05:44:46.402Z,93990.51
2018-12-15T05:47:15.763Z,93980.43
2018-12-15T05:49:43.148Z,93987.66
2018-12-15T05:52:10.486Z,93984.02
2018-12-15T05:54:41.728Z,93984.63
2018-12-15T05:57:09.097Z,93985.70
2018-12-15T05:59:36.476Z,93990.24
2018-12-15T06:02:05.866Z,93986.48
2018-12-15T06:04:36.436Z,93985.58
2018-12-15T06:07:03.827Z,93986.77
2018-12-15T06:09:31.230Z,93984.19
2018-12-15T06:11:58.630Z,93985.64
2018-12-15T06:17:07.818Z,93987.07
2018-12-15T06:19:35.168Z,93981.52
2018-12-15T06:22:02.529Z,93989.88
2018-12-15T06:24:33.954Z,93992.09
2018-12-15T06:27:04.992Z,93991.28
2018-12-15T06:29:32.345Z,93993.56
2018-12-15T06:32:03.723Z,93994.95
2018-12-15T06:34:31.086Z,93997.42
2018-12-15T06:36:58.431Z,93995.95
2018-12-15T06:39:25.828Z,94003.05
2018-12-15T06:41:58.753Z,93999.45
2018-12-15T06:44:26.126Z,93990.22
2018-12-15T06:46:57.427Z,93992.95
2018-12-15T06:49:25.642Z,93993.98
2018-12-15T06:51:53.006Z,93994.66
2018-12-15T06:54:23.571Z,93996.48
2018-12-15T06:57:57.807Z,93992.18
2018-12-15T07:00:30.785Z,93991.33
2018-12-15T07:02:58.155Z,93990.36
2018-12-15T07:05:25.528Z,93996.97
2018-12-15T07:09:17.413Z,93994.83
2018-12-15T07:11:44.780Z,93997.25
2018-12-15T07:14:12.176Z,93993.38
2018-12-15T07:16:39.557Z,93996.56
2018-12-15T07:19:11.015Z,93993.64
2018-12-15T07:21:39.055Z,93992.95
2018-12-15T07:24:08.052Z,94000.55
2018-12-15T07:26:35.420Z,94003.52
2018-12-15T07:29:02.987Z,94003.24
2018-12-15T07:31:30.434Z,94003.37
2018-12-15T07:33:57.862Z,94002.96
2018-12-15T07:36:28.767Z,93997.13
2018-12-15T07:38:56.182Z,94000.17
2018-12-15T07:41:23.584Z,93995.04
2018-12-15T07:43:51.017Z,94000.31
2018-12-15T07:46:20.186Z,93995.00
2018-12-15T07:48:51.391Z,94004.28
2018-12-15T07:51:17.088Z,93999.67
2018-12-15T07:53:44.566Z,94006.75
2018-12-15T07:56:17.379Z,94007.20
2018-12-15T07:58:44.767Z,94005.45
2018-12-15T08:01:15.262Z,94013.19
2018-12-15T08:03:44.588Z,94005.66
2018-12-15T08:06:11.966Z,94015.48
2018-12-15T08:08:45.650Z,94017.98
2018-12-15T08:11:18.731Z,94017.52
2018-12-15T08:13:48.631Z,94019.19
2018-12-15T08:16:19.877Z,94026.77
2018-12-15T08:18:47.248Z,94025.23
2018-12-15T08:21:20.405Z,94025.11
2018-12-15T08:23:47.783Z,94023.57
2018-12-15T08:26:16.855Z,94022.14
2018-12-15T08:28:44.234Z,94031.90
2018-12-15T08:31:14.915Z,94029.33
2018-12-15T08:33:42.453Z,94038.51
2018-12-15T08:36:09.902Z,94021.73
2018-12-15T08:38:37.281Z,94028.85
2018-12-15T08:41:04.757Z,94031.05
2018-12-15T08:43:35.852Z,94034.58
2018-12-15T08:46:14.704Z,94034.82
2018-12-15T08:48:42.120Z,94027.34
2018-12-15T08:51:09.541Z,94028.13
2018-12-15T08:53:36.925Z,94026.09
2018-12-15T08:56:07.377Z,94030.98
2018-12-15T08:58:38.355Z,94028.90
2018-12-15T09:01:05.763Z,94029.39
2018-12-15T09:03:36.851Z,94025.91
2018-12-15T09:06:07.684Z,94033.32
2018-12-15T09:08:35.117Z,94021.30
2018-12-15T09:11:02.607Z,94029.02
2018-12-15T09:13:30.006Z,94033.63
2018-12-15T09:15:57.396Z,94037.09
2018-12-15T09:18:24.845Z,94038.91
2018-12-15T09:20:52.344Z,94039.36
2018-12-15T09:23:19.794Z,94041.95
2018-12-15T09:25:47.224Z,94039.67
2018-12-15T09:28:14.615Z,94045.00
2018-12-15T09:30:42.802Z,94042.61
2018-12-15T09:33:10.170Z,94041.10
2018-12-15T09:35:37.577Z,94038.36
2018-12-15T09:38:08.335Z,94034.64
2018-12-15T09:40:39.419Z,94035.55
2018-12-15T09:43:06.836Z,94035.98
2018-12-15T09:45:35.381Z,94035.53
2018-12-15T09:48:02.809Z,94033.45
2018-12-15T09:50:30.164Z,94021.86
2018-12-15T09:52:57.528Z,94023.05
2018-12-15T09:55:24.920Z,94018.76
2018-12-15T09:57:57.282Z,94014.33
2018-12-15T10:00:24.679Z,94018.46
2018-12-15T10:02:52.016Z,94013.55
2018-12-15T10:05:19.445Z,94016.42
2018-12-15T10:07:56.587Z,94014.75
2018-12-15T10:10:24.046Z,94011.83
2018-12-15T10:12:51.470Z,94014.34
2018-12-15T10:15:24.470Z,94006.54
2018-12-15T10:17:51.912Z,94005.30
2018-12-15T10:20:19.326Z,94002.84
2018-12-15T10:22:46.913Z,93999.50
2018-12-15T10:25:14.361Z,93999.19
2018-12-15T10:27:56.379Z,93989.78
2018-12-15T10:31:32.028Z,93991.94
2018-12-15T10:33:59.414Z,93990.51
2018-12-15T10:36:26.829Z,93991.39
2018-12-15T10:38:54.278Z,93982.29
2018-12-15T10:41:21.642Z,93976.73
2018-12-15T10:43:52.016Z,93979.87
2018-12-15T10:46:25.395Z,93973.77
2018-12-15T10:48:52.762Z,93975.62
2018-12-15T10:51:23.891Z,93972.29
2018-12-15T10:53:52.871Z,93977.27
2018-12-15T10:56:23.738Z,93971.30
2018-12-15T10:58:51.128Z,93980.56
2018-12-15T11:01:22.786Z,93972.55
2018-12-15T11:03:51.078Z,93980.88
2018-12-15T11:06:21.957Z,93977.21
2018-12-15T11:08:49.389Z,93973.91
2018-12-15T11:11:16.816Z,93971.86
2018-12-15T11:13:44.485Z,93973.95
2018-12-15T11:16:12.647Z,93969.08
2018-12-15T11:18:40.050Z,93973.73
2018-12-15T11:21:10.557Z,93963.44
2018-12-15T11:26:17.647Z,93958.13
2018-12-15T11:28:45.015Z,93957.81
2018-12-15T11:31:12.475Z,93950.78
2018-12-15T11:33:39.902Z,93945.09
2018-12-15T11:36:10.762Z,93946.59
2018-12-15T11:38:41.670Z,93933.28
2018-12-15T11:41:12.647Z,93936.07
2018-12-15T11:43:40.058Z,93933.70
2018-12-15T11:46:07.437Z,93933.61
2018-12-15T11:48:38.603Z,93930.99
2018-12-15T11:51:09.680Z,93930.34
2018-12-15T11:53:40.691Z,93929.00
2018-12-15T11:56:18.533Z,93929.13
2018-12-15T11:58:51.913Z,93921.69
2018-12-15T12:01:22.598Z,93929.36
2018-12-15T12:03:49.997Z,93921.50
2018-12-15T12:06:18.977Z,93917.86
2018-12-15T12:08:46.420Z,93916.66
2018-12-15T12:11:17.826Z,93917.77
2018-12-15T12:13:45.234Z,93918.47
2018-12-15T12:16:24.826Z,93919.63
2018-12-15T12:18:52.248Z,93913.39
2018-12-15T12:21:19.643Z,93907.11
2018-12-15T12:23:47.041Z,93900.98
2018-12-15T12:26:14.467Z,93893.86
2018-12-15T12:28:41.821Z,93894.32
2018-12-15T12:31:13.218Z,93893.16
2018-12-15T12:33:40.581Z,93887.66
2018-12-15T12:36:07.966Z,93887.48
2018-12-15T12:38:35.391Z,93892.08
2018-12-15T12:41:02.782Z,93896.69
2018-12-15T12:43:30.222Z,93906.00
2018-12-15T12:45:57.646Z,93905.63
2018-12-15T12:48:28.646Z,93911.40
2018-12-15T12:51:01.899Z,93911.12
2018-12-15T12:53:29.248Z,93905.26
2018-12-15T12:55:59.953Z,93910.66
2018-12-15T12:58:27.352Z,93898.80
2018-12-15T13:00:58.776Z,93902.61
2018-12-15T13:03:26.139Z,93894.79
2018-12-15T13:05:55.049Z,93898.23
2018-12-15T13:08:22.481Z,93900.36
2018-12-15T13:10:49.928Z,93902.37
2018-12-15T13:14:42.392Z,93893.99
2018-12-15T13:17:09.767Z,93887.11
2018-12-15T13:19:37.158Z,93890.78
2018-12-15T13:22:04.623Z,93886.19
2018-12-15T13:24:32.047Z,93884.18
2018-12-15T13:26:59.507Z,93889.48
2018-12-15T13:29:27.027Z,93890.00
2018-12-15T13:31:54.447Z,93885.89
2018-12-15T13:34:21.826Z,93891.85
2018-12-15T13:39:41.778Z,93884.60
2018-12-15T13:42:14.695Z,93886.59
2018-12-15T13:44:42.142Z,93887.28
2018-12-15T13:47:10.164Z,93888.45
2018-12-15T13:49:40.889Z,93885.69
2018-12-15T13:52:08.268Z,93887.31
2018-12-15T13:54:37.376Z,93886.21
2018-12-15T13:57:04.812Z,93894.59
2018-12-15T13:59:32.216Z,93890.88
2018-12-15T14:02:03.211Z,93887.95
2018-12-15T14:04:30.621Z,93892.97
2018-12-15T14:07:00.057Z,93890.88
2018-12-15T14:09:27.478Z,93889.77
2018-12-15T14:13:19.411Z,93894.45
2018-12-15T14:15:46.976Z,93892.91
2018-12-15T14:18:14.358Z,93896.33
2018-12-15T14:20:41.723Z,93896.59
2018-12-15T14:23:09.070Z,93901.70
2018-12-15T14:25:36.533Z,93898.77
2018-12-15T14:28:04.080Z,93901.61
2018-12-15T14:30:31.478Z,93905.31
2018-12-15T14:32:58.846Z,93906.09
2018-12-15T14:35:26.275Z,93899.92
2018-12-15T14:38:05.271Z,93898.67
2018-12-15T14:40:32.654Z,93896.89
2018-12-15T14:43:00.061Z,93903.00
2018-12-15T14:45:33.838Z,93900.06
2018-12-15T14:48:01.247Z,93903.47
2018-12-15T14:50:28.632Z,93899.17
2018-12-15T14:52:59.411Z,93900.01
2018-12-15T14:55:26.807Z,93900.86
2018-12-15T14:57:57.802Z,93899.59
2018-12-15T15:00:25.231Z,93898.28
2018-12-15T15:02:52.977Z,93898.27
2018-12-15T15:05:20.400Z,93893.80
2018-12-15T15:07:51.042Z,93895.41
2018-12-15T15:10:18.401Z,93888.23
2018-12-15T15:12:45.790Z,93890.27
2018-12-15T15:15:13.190Z,93889.63
2018-12-15T15:17:44.212Z,93893.52
2018-12-15T15:20:15.064Z,93887.11
2018-12-15T15:22:42.477Z,93889.16
2018-12-15T15:25:09.890Z,93885.86
2018-12-15T15:27:45.798Z,93885.86
2018-12-15T15:30:13.311Z,93890.82
2018-12-15T15:32:40.916Z,93889.56
2018-12-15T15:35:08.357Z,93887.85
2018-12-15T15:37:37.761Z,93876.62
2018-12-15T15:40:05.339Z,93878.65
2018-12-15T15:42:32.780Z,93879.05
2018-12-15T15:45:00.238Z,93881.50
2018-12-15T15:47:45.474Z,93881.21
2018-12-15T15:50:12.863Z,93875.04
2018-12-15T15:52:40.264Z,93866.89
2018-12-15T15:55:07.971Z,93869.81
2018-12-15T15:57:39.113Z,93859.30
2018-12-15T16:00:08.066Z,93859.82
2018-12-15T16:02:35.442Z,93858.51
2018-12-15T16:05:02.912Z,93853.19
2018-12-15T16:07:34.377Z,93854.91
2018-12-15T16:10:01.895Z,93851.09
2018-12-15T16:12:29.374Z,93846.86
2018-12-15T16:14:56.787Z,93844.67
2018-12-15T16:17:24.219Z,93850.45
2018-12-15T16:19:51.731Z,93846.34
2018-12-15T16:22:19.190Z,93848.55
2018-12-15T16:24:46.568Z,93843.81
2018-12-15T16:27:20.058Z,93836.98
2018-12-15T16:29:47.497Z,93839.64
2018-12-15T16:32:14.914Z,93836.35
2018-12-15T16:34:42.441Z,93836.42
2018-12-15T16:37:11.871Z,93834.48
2018-12-15T16:39:39.347Z,93825.76
2018-12-15T16:42:06.758Z,93829.95
2018-12-15T16:44:34.163Z,93825.86
2018-12-15T16:47:09.708Z,93829.12
2018-12-15T16:51:01.648Z,93826.66
2018-12-15T16:53:29.066Z,93823.93
2018-12-15T16:55:57.890Z,93820.59
2018-12-15T16:58:25.273Z,93821.00
2018-12-15T17:02:17.204Z,93824.88
2018-12-15T17:04:48.412Z,93829.89
2018-12-15T17:07:17.828Z,93830.30
2018-12-15T17:09:45.219Z,93829.88
2018-12-15T17:12:12.637Z,93820.75
2018-12-15T17:14:40.168Z,93820.16
2018-12-15T17:17:07.581Z,93818.13
2018-12-15T17:19:34.969Z,93816.15
2018-12-15T17:22:02.371Z,93812.70
2018-12-15T17:24:29.781Z,93810.13
2018-12-15T17:26:57.255Z,93802.07
2018-12-15T17:29:24.672Z,93799.52
2018-12-15T17:31:52.085Z,93796.59
2018-12-15T17:34:19.474Z,93796.11
2018-12-15T17:36:57.379Z,93796.78
2018-12-15T17:39:24.783Z,93795.84
2018-12-15T17:41:52.328Z,93792.38
2018-12-15T17:44:19.689Z,93789.94
2018-12-15T17:46:48.432Z,93788.56
2018-12-15T17:49:15.857Z,93790.05
2018-12-15T17:51:43.238Z,93780.92
2018-12-15T17:54:10.653Z,93788.48
2018-12-15T17:56:38.112Z,93778.46
2018-12-15T17:59:05.587Z,93773.46
2018-12-15T18:01:32.981Z,93780.09
2018-12-15T18:04:00.377Z,93773.05
2018-12-15T18:06:34.032Z,93770.58
2018-12-15T18:09:01.760Z,93764.81
2018-12-15T18:11:31.170Z,93761.50
2018-12-15T18:13:58.715Z,93759.80
2018-12-15T18:16:27.077Z,93753.83
2018-12-15T18:18:55.032Z,93752.87
2018-12-15T18:21:22.428Z,93752.39
2018-12-15T18:23:49.842Z,93742.31
2018-12-15T18:26:17.257Z,93741.78
2018-12-15T18:28:44.703Z,93743.98
2018-12-15T18:31:12.372Z,93736.72
2018-12-15T18:33:39.780Z,93732.17
2018-12-15T18:36:07.156Z,93726.58
2018-12-15T18:38:34.747Z,93729.62
2018-12-15T18:41:02.205Z,93724.13
2018-12-15T18:43:29.618Z,93724.12
2018-12-15T18:45:57.059Z,93716.92
2018-12-15T18:48:24.473Z,93715.70
2018-12-15T18:50:51.909Z,93712.37
2018-12-15T18:53:19.612Z,93704.22
2018-12-15T18:55:47.163Z,93698.00
2018-12-15T18:58:14.558Z,93694.61
2018-12-15T19:00:41.983Z,93702.43
2018-12-15T19:03:09.364Z,93701.17
2018-12-15T19:05:37.878Z,93694.38
2018-12-15T19:08:05.285Z,93691.07
2018-12-15T19:10:36.428Z,93690.48
2018-12-15T19:13:03.854Z,93681.36
2018-12-15T19:15:31.264Z,93676.34
2018-12-15T19:18:00.750Z,93669.91
2018-12-15T19:20:28.162Z,93672.83
2018-12-15T19:22:55.607Z,93662.30
2018-12-15T19:25:23.054Z,93665.63
2018-12-15T19:30:44.228Z,93655.50
2018-12-15T19:33:11.618Z,93653.82
2018-12-15T19:35:39.151Z,93649.94
2018-12-15T19:38:06.602Z,93642.25
2018-12-15T19:40:34.058Z,93643.98
2018-12-15T19:43:01.460Z,93650.78
2018-12-15T19:45:28.943Z,93640.55
2018-12-15T19:47:58.019Z,93637.66
2018-12-15T19:50:25.434Z,93637.50
2018-12-15T19:52:52.908Z,93631.17
2018-12-15T19:55:20.306Z,93624.98
2018-12-15T19:57:54.214Z,93628.66
2018-12-15T20:00:21.643Z,93624.62
2018-12-15T20:02:49.064Z,93613.66
2018-12-15T20:05:16.525Z,93608.05
2018-12-15T20:10:38.154Z,93592.91
2018-12-15T20:13:05.556Z,93580.28
2018-12-15T20:15:32.964Z,93584.34
2018-12-15T20:18:00.348Z,93582.70
2018-12-15T20:20:27.776Z,93586.34
2018-12-15T20:22:55.185Z,93585.45
2018-12-15T20:25:22.655Z,93585.67
2018-12-15T20:27:57.639Z,93584.06
2018-12-15T20:30:25.229Z,93580.13
2018-12-15T20:32:52.848Z,93578.67
2018-12-15T20:35:20.284Z,93576.99
2018-12-15T20:37:54.558Z,93569.18
2018-12-15T20:40:21.985Z,93577.70
2018-12-15T20:42:49.403Z,93570.83
2018-12-15T20:45:16.854Z,93563.67
2018-12-15T20:47:44.255Z,93564.94
2018-12-15T20:50:11.729Z,93560.58
2018-12-15T20:52:39.102Z,93554.92
2018-12-15T20:55:06.776Z,93560.34
2018-12-15T20:57:38.186Z,93556.30
2018-12-15T21:00:07.919Z,93551.47
2018-12-15T21:02:35.338Z,93553.93
2018-12-15T21:05:02.934Z,93550.17
2018-12-15T21:07:33.489Z,93551.42
2018-12-15T21:10:01.004Z,93550.84
2018-12-15T21:12:28.459Z,93546.41
2018-12-15T21:14:58.490Z,93549.81
2018-12-15T21:17:30.499Z,93542.08
2018-12-15T21:19:57.935Z,93535.14
2018-12-15T21:22:25.334Z,93528.00
2018-12-15T21:25:07.355Z,93521.70
2018-12-15T21:27:49.730Z,93526.35
2018-12-15T21:30:17.174Z,93516.36
2018-12-15T21:32:44.568Z,93513.22
2018-12-15T21:35:12.055Z,93510.44
2018-12-15T21:37:39.484Z,93513.75
2018-12-15T21:40:07.090Z,93501.69
2018-12-15T21:43:58.986Z,93496.67
2018-12-15T21:46:26.500Z,93490.84
2018-12-15T21:48:53.874Z,93475.92
2018-12-15T21:51:21.306Z,93472.10
2018-12-15T21:53:48.686Z,93472.59
2018-12-15T21:56:16.141Z,93465.89
2018-12-15T21:58:43.630Z,93457.66
2018-12-15T22:01:11.017Z,93455.88
2018-12-15T22:03:38.431Z,93460.87
2018-12-15T22:06:23.682Z,93459.33
2018-12-15T22:08:51.159Z,93451.59
2018-12-15T22:11:18.556Z,93447.53
2018-12-15T22:13:45.975Z,93448.78
2018-12-15T22:16:13.359Z,93439.66
2018-12-15T22:18:40.761Z,93441.88
2018-12-15T22:21:08.169Z,93436.19
2018-12-15T22:23:35.579Z,93432.44
2018-12-15T22:26:24.776Z,93445.94
2018-12-15T22:28:52.185Z,93442.19
2018-12-15T22:31:19.595Z,93434.31
2018-12-15T22:33:47.026Z,93433.18
2018-12-15T22:36:18.194Z,93428.69
2018-12-15T22:38:45.632Z,93427.34
2018-12-15T22:41:13.053Z,93426.08
2018-12-15T22:43:40.485Z,93421.35
2018-12-15T22:46:14.439Z,93418.11
2018-12-15T22:48:41.885Z,93408.34
2018-12-15T22:51:09.273Z,93405.89
2018-12-15T22:53:36.675Z,93402.52
2018-12-15T22:56:04.105Z,93392.97
2018-12-15T22:58:31.539Z,93379.89
2018-12-15T23:01:04.385Z,93379.05
2018-12-15T23:03:31.764Z,93373.62
2018-12-15T23:05:59.220Z,93374.52
2018-12-15T23:08:26.644Z,93365.70
2018-12-15T23:10:54.146Z,93354.87
2018-12-15T23:13:21.539Z,93339.01
2018-12-15T23:15:48.914Z,93341.05
2018-12-15T23:18:16.289Z,93335.63
2018-12-15T23:20:43.704Z,93326.55
2018-12-15T23:23:11.130Z,93320.33
2018-12-15T23:25:38.563Z,93317.13
2018-12-15T23:28:05.973Z,93307.99
2018-12-15T23:30:33.428Z,93297.98
2018-12-15T23:33:00.816Z,93302.56
2018-12-15T23:35:28.193Z,93298.39
2018-12-15T23:37:55.645Z,93298.44
2018-12-15T23:42:48.078Z,93298.10
2018-12-15T23:45:15.453Z,93285.13
2018-12-15T23:47:42.855Z,93288.09
2018-12-15T23:50:10.368Z,93280.45
2018-12-15T23:52:37.772Z,93287.17
2018-12-15T23:55:05.287Z,93286.45
2018-12-15T23:57:32.674Z,93282.12
